Time;durP1;ratioP1;P1;durP2;ratioP2;P2;SDS_P1;SDS_P2;PMS_P1;PMS_P2;Temp;Humidity;BMP_temperature;BMP_pressure;BME280_temperature;BME280_humidity;BME280_pressure;Samples;Min_cycle;Max_cycle;Signal;HPM_P1;HPM_P2
2021/08/30 00:01:02;;;;;;;4.75;2.75;;;18.40;99.90;;;;;;5090637;28;20270;-73
2021/08/30 00:03:29;;;;;;;3.10;2.47;;;18.40;99.90;;;;;;5090966;28;20255;-73
2021/08/30 00:05:56;;;;;;;2.78;2.58;;;18.30;99.90;;;;;;5089385;28;20197;-72
2021/08/30 00:08:23;;;;;;;2.17;1.98;;;18.30;99.90;;;;;;5090859;28;20213;-72
2021/08/30 00:10:50;;;;;;;2.55;2.30;;;18.30;99.90;;;;;;5090027;28;20738;-73
2021/08/30 00:13:16;;;;;;;2.47;2.20;;;18.20;99.90;;;;;;5090485;28;20322;-72
2021/08/30 00:15:43;;;;;;;2.50;2.30;;;18.20;99.90;;;;;;5090015;28;20259;-73
2021/08/30 00:18:12;;;;;;;3.55;2.50;;;18.10;99.90;;;;;;5090704;28;20225;-73
2021/08/30 00:20:39;;;;;;;3.10;2.80;;;18.10;99.90;;;;;;5090161;28;20209;-72
2021/08/30 00:23:06;;;;;;;2.78;2.53;;;18.10;99.90;;;;;;5090775;28;20665;-72
2021/08/30 00:25:33;;;;;;;2.70;2.47;;;18.10;99.90;;;;;;5090999;28;20270;-73
2021/08/30 00:28:00;;;;;;;2.03;1.83;;;18.10;99.90;;;;;;5090123;28;20208;-72
2021/08/30 00:30:28;;;;;;;3.42;1.92;;;18.00;99.90;;;;;;5090806;28;20212;-71
2021/08/30 00:32:55;;;;;;;2.13;1.98;;;18.10;99.90;;;;;;5089859;28;20684;-71
2021/08/30 00:35:23;;;;;;;2.75;2.53;;;18.10;99.90;;;;;;5090389;28;20251;-72
2021/08/30 00:37:50;;;;;;;2.80;2.60;;;18.00;99.90;;;;;;5089916;28;20205;-72
2021/08/30 00:40:18;;;;;;;3.13;2.72;;;18.00;99.90;;;;;;5090259;28;20677;-72
2021/08/30 00:42:46;;;;;;;2.00;1.90;;;17.90;99.90;;;;;;5089987;28;20209;-72
2021/08/30 00:45:14;;;;;;;2.17;2.00;;;17.90;99.90;;;;;;5089908;28;20269;-72
2021/08/30 00:47:44;;;;;;;2.92;2.30;;;17.90;99.90;;;;;;5090265;28;20201;-72
2021/08/30 00:50:13;;;;;;;3.35;3.13;;;17.90;99.90;;;;;;5089862;28;20254;-72
2021/08/30 00:52:42;;;;;;;2.20;1.95;;;17.90;99.90;;;;;;5090105;28;20255;-71
2021/08/30 00:55:10;;;;;;;2.30;2.10;;;18.00;99.90;;;;;;5089992;28;20665;-71
2021/08/30 00:57:37;;;;;;;2.72;2.42;;;18.10;99.90;;;;;;5090347;28;20630;-71
2021/08/30 01:00:06;;;;;;;2.97;2.60;;;18.00;99.90;;;;;;5090657;28;20316;-72
2021/08/30 01:02:33;;;;;;;2.55;2.35;;;17.90;99.90;;;;;;5090057;28;20263;-72
2021/08/30 01:05:01;;;;;;;2.85;2.22;;;17.70;99.90;;;;;;5089574;28;20627;-71
2021/08/30 01:07:39;;;;;;;4.55;2.47;;;17.70;99.90;;;;;;5074527;28;20213;-72
2021/08/30 01:10:11;;;;;;;2.28;2.10;;;17.80;99.90;;;;;;5090501;28;20209;-72
2021/08/30 01:12:46;;;;;;;3.72;2.08;;;17.70;99.90;;;;;;5090158;28;20234;-71
2021/08/30 01:15:18;;;;;;;2.58;2.15;;;17.70;99.90;;;;;;5090197;28;20201;-71
2021/08/30 01:17:46;;;;;;;3.22;2.20;;;17.60;99.90;;;;;;5092343;28;20259;-71
2021/08/30 01:20:29;;;;;;;2.63;2.30;;;17.60;99.90;;;;;;5093701;28;20237;-72
2021/08/30 01:22:58;;;;;;;2.88;2.58;;;17.60;99.90;;;;;;5093177;28;20681;-72
2021/08/30 01:25:28;;;;;;;2.83;2.53;;;17.50;99.90;;;;;;5093706;28;20205;-71
2021/08/30 01:27:56;;;;;;;2.42;2.22;;;17.40;99.90;;;;;;5093183;28;20266;-71
2021/08/30 01:30:24;;;;;;;3.05;2.58;;;17.40;99.90;;;;;;5093447;28;20243;-72
2021/08/30 01:32:55;;;;;;;2.50;2.30;;;17.40;99.90;;;;;;5092674;28;20209;-72
2021/08/30 01:35:26;;;;;;;2.28;2.08;;;17.40;99.90;;;;;;5093314;28;20190;-72
2021/08/30 01:37:55;;;;;;;2.90;2.70;;;17.40;99.90;;;;;;5092994;28;20257;-72
2021/08/30 01:40:26;;;;;;;2.20;1.92;;;17.40;99.90;;;;;;5093411;28;20284;-72
2021/08/30 01:42:55;;;;;;;2.97;2.58;;;17.30;99.90;;;;;;5092761;28;20294;-72
2021/08/30 01:45:24;;;;;;;3.10;2.80;;;17.20;99.90;;;;;;5093021;28;20209;-72
2021/08/30 01:47:57;;;;;;;3.40;2.67;;;17.20;99.90;;;;;;5092704;28;20270;-72
2021/08/30 01:50:25;;;;;;;2.65;2.45;;;17.30;99.90;;;;;;5093209;28;20209;-72
2021/08/30 01:52:54;;;;;;;3.08;2.67;;;17.40;99.90;;;;;;5092657;28;20258;-72
2021/08/30 01:55:30;;;;;;;2.75;2.55;;;17.20;99.90;;;;;;5092906;28;20209;-71
2021/08/30 02:00:47;;;;;;;2.22;1.98;;;17.00;99.90;;;;;;5092725;28;20216;-72
2021/08/30 02:03:17;;;;;;;2.72;2.28;;;17.00;99.90;;;;;;5092682;28;20209;-72
2021/08/30 02:05:46;;;;;;;4.85;3.45;;;16.80;99.90;;;;;;5092540;28;20202;-71
2021/08/30 02:08:15;;;;;;;2.15;2.00;;;16.70;99.90;;;;;;5092937;28;20229;-72
2021/08/30 02:10:43;;;;;;;2.53;2.10;;;16.70;99.90;;;;;;5092735;28;20243;-72
2021/08/30 02:13:10;;;;;;;2.78;2.30;;;16.80;99.90;;;;;;5092639;28;20681;-72
2021/08/30 02:15:37;;;;;;;3.45;2.92;;;16.80;99.90;;;;;;5064637;28;20267;-72
2021/08/30 02:18:13;;;;;;;3.40;2.20;;;16.70;99.90;;;;;;5092882;28;20205;-71
2021/08/30 02:20:48;;;;;;;3.03;2.58;;;16.60;99.90;;;;;;5092240;28;20213;-72
2021/08/30 02:23:19;;;;;;;5.43;2.78;;;16.70;99.90;;;;;;5092515;28;20284;-71
2021/08/30 02:25:47;;;;;;;2.05;1.95;;;16.70;99.90;;;;;;5092032;28;20249;-73
2021/08/30 02:28:14;;;;;;;3.45;2.55;;;16.70;99.90;;;;;;5091656;28;20673;-73
2021/08/30 02:30:42;;;;;;;3.80;2.53;;;16.40;99.90;;;;;;5091394;28;20247;-73
2021/08/30 02:33:12;;;;;;;2.40;1.92;;;16.40;99.90;;;;;;5092359;28;20661;-73
2021/08/30 02:35:43;;;;;;;2.25;2.05;;;16.40;99.90;;;;;;5092166;28;20263;-73
2021/08/30 02:38:12;;;;;;;2.58;2.20;;;16.40;99.90;;;;;;5092288;28;20278;-73
2021/08/30 02:40:41;;;;;;;3.58;2.03;;;16.40;99.90;;;;;;5091953;28;20582;-73
2021/08/30 02:43:08;;;;;;;2.15;1.95;;;16.30;99.90;;;;;;5092127;28;20202;-73
2021/08/30 02:45:36;;;;;;;3.65;2.10;;;16.30;99.90;;;;;;5092096;28;20217;-73
2021/08/30 02:48:04;;;;;;;2.45;1.80;;;16.20;99.90;;;;;;5092080;28;20206;-73
2021/08/30 02:50:32;;;;;;;2.63;2.10;;;16.20;99.90;;;;;;5092233;28;20628;-73
2021/08/30 02:53:02;;;;;;;3.75;2.30;;;16.20;99.90;;;;;;5091409;28;20660;-73
2021/08/30 02:55:29;;;;;;;2.65;1.80;;;16.30;99.90;;;;;;5092382;28;20615;-73
2021/08/30 02:57:58;;;;;;;1.83;1.73;;;16.30;99.90;;;;;;5091039;28;20623;-73
2021/08/30 03:00:26;;;;;;;2.38;1.88;;;16.40;99.90;;;;;;5091702;28;20221;-73
2021/08/30 03:02:54;;;;;;;2.25;1.88;;;16.40;99.90;;;;;;5091092;28;20267;-73
2021/08/30 03:05:22;;;;;;;2.30;2.10;;;16.30;99.90;;;;;;5091875;28;20197;-73
2021/08/30 03:07:49;;;;;;;2.33;1.75;;;16.30;99.90;;;;;;5091240;28;20208;-72
2021/08/30 03:10:18;;;;;;;2.80;2.03;;;16.30;99.90;;;;;;5091613;28;20619;-72
2021/08/30 03:12:47;;;;;;;2.95;2.40;;;16.20;99.90;;;;;;5091199;28;20646;-72
2021/08/30 03:15:17;;;;;;;2.60;2.17;;;16.20;99.90;;;;;;5091053;28;20256;-71
2021/08/30 03:17:46;;;;;;;2.42;2.22;;;16.10;99.90;;;;;;5091270;28;20206;-72
2021/08/30 03:20:18;;;;;;;1.77;1.67;;;16.10;99.90;;;;;;5091438;28;20314;-71
2021/08/30 03:22:46;;;;;;;1.98;1.88;;;16.10;99.90;;;;;;5091236;28;20278;-71
2021/08/30 03:25:15;;;;;;;1.70;1.60;;;16.00;99.90;;;;;;5091563;28;20209;-71
2021/08/30 03:27:47;;;;;;;2.00;1.83;;;16.10;99.90;;;;;;5091138;28;20208;-72
2021/08/30 03:30:16;;;;;;;4.00;2.17;;;16.20;99.90;;;;;;5091267;28;20210;-71
2021/08/30 03:32:44;;;;;;;2.65;2.20;;;16.10;99.90;;;;;;5090660;28;20205;-71
2021/08/30 03:35:12;;;;;;;2.90;2.55;;;16.00;99.90;;;;;;5088219;28;20217;-71
2021/08/30 03:37:42;;;;;;;2.22;2.03;;;16.00;99.90;;;;;;5075982;28;20258;-72
2021/08/30 03:40:12;;;;;;;1.70;1.60;;;15.90;99.90;;;;;;5089972;28;20229;-72
2021/08/30 03:42:40;;;;;;;2.38;1.88;;;15.90;99.90;;;;;;5080085;28;20292;-73
2021/08/30 03:45:11;;;;;;;2.47;1.92;;;15.90;99.90;;;;;;5090650;28;20213;-73
2021/08/30 03:47:39;;;;;;;1.70;1.55;;;15.80;99.90;;;;;;5090939;28;20205;-73
2021/08/30 03:50:07;;;;;;;2.33;2.13;;;15.80;99.90;;;;;;5091458;28;20205;-72
2021/08/30 03:52:38;;;;;;;2.08;1.92;;;15.90;99.90;;;;;;5091267;28;20282;-72
2021/08/30 03:55:07;;;;;;;2.28;2.08;;;15.80;99.90;;;;;;5083043;28;20202;-72
2021/08/30 03:57:36;;;;;;;2.08;1.83;;;15.60;99.90;;;;;;5091139;28;20275;-73
2021/08/30 04:00:05;;;;;;;2.70;2.45;;;15.50;99.90;;;;;;5090514;28;20225;-72
2021/08/30 04:02:35;;;;;;;1.73;1.63;;;15.60;99.90;;;;;;5073987;28;20206;-73
2021/08/30 04:05:04;;;;;;;4.68;2.15;;;15.70;99.90;;;;;;5078848;28;20590;-71
2021/08/30 04:07:32;;;;;;;3.85;2.35;;;15.80;99.90;;;;;;5065542;28;20217;-72
2021/08/30 04:09:59;;;;;;;2.92;2.30;;;15.70;99.90;;;;;;5078474;28;20618;-72
2021/08/30 04:12:27;;;;;;;4.68;1.75;;;15.70;99.90;;;;;;5076262;28;20206;-72
2021/08/30 04:14:54;;;;;;;3.03;2.10;;;15.70;99.90;;;;;;5077956;28;20618;-73
2021/08/30 04:17:21;;;;;;;2.53;2.33;;;15.70;99.90;;;;;;5089885;28;20665;-72
2021/08/30 04:19:49;;;;;;;3.20;2.22;;;15.70;99.90;;;;;;5085981;28;20229;-72
2021/08/30 04:22:16;;;;;;;3.90;2.28;;;15.70;99.90;;;;;;5087112;28;20201;-72
2021/08/30 04:24:43;;;;;;;3.20;1.92;;;15.70;99.90;;;;;;5088626;28;20624;-72
2021/08/30 04:27:11;;;;;;;3.42;2.22;;;15.70;99.90;;;;;;5086504;28;20202;-71
2021/08/30 04:29:39;;;;;;;1.92;1.60;;;15.60;99.90;;;;;;5081642;28;20241;-71
2021/08/30 04:32:09;;;;;;;2.80;2.25;;;15.60;99.90;;;;;;5071829;28;20217;-72
2021/08/30 04:34:38;;;;;;;3.25;2.40;;;15.50;99.90;;;;;;5071898;28;20285;-71
2021/08/30 04:37:06;;;;;;;4.60;2.05;;;15.50;99.90;;;;;;5072427;28;20692;-72
2021/08/30 04:39:33;;;;;;;2.95;2.45;;;15.50;99.90;;;;;;5057830;28;20226;-72
2021/08/30 04:42:01;;;;;;;2.40;2.20;;;15.50;99.90;;;;;;5070593;28;20214;-72
2021/08/30 04:44:29;;;;;;;3.05;2.20;;;15.50;99.90;;;;;;5071849;28;20290;-72
2021/08/30 04:46:56;;;;;;;3.17;2.20;;;15.50;99.90;;;;;;5070225;28;20206;-73
2021/08/30 04:49:23;;;;;;;2.78;2.53;;;15.50;99.90;;;;;;5070660;28;20206;-73
2021/08/30 04:51:50;;;;;;;4.43;2.42;;;15.50;99.90;;;;;;5069735;28;20206;-72
2021/08/30 04:54:20;;;;;;;3.78;2.15;;;15.50;99.90;;;;;;5088484;28;20673;-72
2021/08/30 04:56:47;;;;;;;2.58;2.33;;;15.40;99.90;;;;;;5085127;28;20218;-73
2021/08/30 04:59:14;;;;;;;2.00;1.85;;;15.50;99.90;;;;;;5086030;28;20205;-70
2021/08/30 05:01:41;;;;;;;1.98;1.77;;;15.40;99.90;;;;;;5092605;28;20214;-72
2021/08/30 05:04:08;;;;;;;3.50;2.40;;;15.40;99.90;;;;;;5091626;28;20746;-71
2021/08/30 05:06:35;;;;;;;1.75;1.65;;;15.40;99.90;;;;;;5091746;28;20259;-72
2021/08/30 05:09:02;;;;;;;3.38;1.80;;;15.30;99.90;;;;;;5092048;28;20263;-71
2021/08/30 05:11:31;;;;;;;2.78;2.05;;;15.30;99.90;;;;;;5090624;28;20233;-71
2021/08/30 05:14:00;;;;;;;2.03;1.70;;;15.30;99.90;;;;;;5092878;28;20400;-72
2021/08/30 05:16:27;;;;;;;3.58;2.47;;;15.20;99.90;;;;;;5092705;28;20726;-72
2021/08/30 05:18:54;;;;;;;3.92;2.38;;;15.20;99.90;;;;;;5093192;28;20201;-71
2021/08/30 05:21:21;;;;;;;2.67;2.38;;;15.20;99.90;;;;;;5093808;28;20233;-72
2021/08/30 05:23:48;;;;;;;1.95;1.70;;;15.30;99.90;;;;;;5093382;28;20264;-72
2021/08/30 05:26:15;;;;;;;7.65;2.33;;;15.30;99.90;;;;;;5093593;28;20197;-72
2021/08/30 05:28:43;;;;;;;4.03;2.40;;;15.30;99.90;;;;;;5093300;28;20209;-72
2021/08/30 05:31:10;;;;;;;4.07;2.20;;;15.10;99.90;;;;;;5092746;28;20625;-72
2021/08/30 05:33:37;;;;;;;4.75;2.47;;;15.20;99.90;;;;;;5093030;28;20588;-72
2021/08/30 05:36:05;;;;;;;3.22;1.92;;;15.30;99.90;;;;;;5093109;28;20615;-72
2021/08/30 05:38:32;;;;;;;2.85;2.53;;;15.20;99.90;;;;;;5093453;28;20730;-71
2021/08/30 05:40:59;;;;;;;2.50;2.15;;;15.20;99.90;;;;;;5092882;28;20233;-71
2021/08/30 05:43:26;;;;;;;4.15;2.22;;;15.20;99.90;;;;;;5093479;28;20205;-71
2021/08/30 05:45:54;;;;;;;2.92;2.50;;;15.30;99.90;;;;;;5092822;28;20198;-71
2021/08/30 05:48:21;;;;;;;2.25;2.00;;;15.30;99.90;;;;;;5079711;28;20205;-73
2021/08/30 05:50:48;;;;;;;3.35;2.55;;;15.20;99.90;;;;;;5088135;28;20205;-72
2021/08/30 05:53:15;;;;;;;3.58;2.55;;;15.30;99.90;;;;;;5087569;28;20205;-75
2021/08/30 05:55:42;;;;;;;2.63;2.42;;;15.30;99.90;;;;;;5072818;28;20256;-72
2021/08/30 05:58:09;;;;;;;3.42;2.20;;;15.40;99.90;;;;;;5091916;28;20201;-71
2021/08/30 06:00:36;;;;;;;2.60;2.33;;;15.40;99.90;;;;;;5091107;28;20241;-74
2021/08/30 06:03:05;;;;;;;2.80;2.20;;;15.50;99.90;;;;;;5067254;28;20205;-72
2021/08/30 06:05:32;;;;;;;2.50;2.30;;;15.50;99.90;;;;;;5079980;28;20247;-69
2021/08/30 06:07:59;;;;;;;5.20;2.70;;;15.50;99.90;;;;;;5088082;28;20209;-71
2021/08/30 06:10:26;;;;;;;5.32;2.58;;;15.50;99.90;;;;;;5092748;28;20202;-70
2021/08/30 06:12:53;;;;;;;3.03;2.83;;;15.60;99.90;;;;;;5077477;28;20263;-74
2021/08/30 06:15:20;;;;;;;4.57;2.35;;;15.50;99.90;;;;;;5074713;28;20206;-71
2021/08/30 06:17:46;;;;;;;2.65;2.40;;;15.50;99.90;;;;;;5083909;28;20232;-69
2021/08/30 06:20:15;;;;;;;2.30;2.10;;;15.60;99.90;;;;;;5074073;28;20241;-73
2021/08/30 06:22:42;;;;;;;2.80;2.13;;;15.70;99.90;;;;;;5066644;28;20656;-75
2021/08/30 06:25:09;;;;;;;2.55;2.35;;;15.60;99.90;;;;;;5087417;28;20201;-74
2021/08/30 06:27:37;;;;;;;3.42;2.67;;;15.60;99.90;;;;;;5092157;28;20220;-74
2021/08/30 06:30:04;;;;;;;4.35;2.78;;;15.70;99.90;;;;;;5091933;28;20209;-72
2021/08/30 06:32:31;;;;;;;3.38;2.60;;;15.90;99.90;;;;;;5091729;28;20665;-75
2021/08/30 06:34:58;;;;;;;2.95;2.65;;;16.00;99.90;;;;;;5091486;28;20634;-75
2021/08/30 06:37:26;;;;;;;3.03;2.72;;;16.00;99.90;;;;;;5088356;28;20689;-69
2021/08/30 06:39:53;;;;;;;3.92;2.60;;;16.10;99.90;;;;;;5091906;28;20225;-72
2021/08/30 06:42:20;;;;;;;4.63;3.33;;;16.20;99.90;;;;;;5079031;28;20658;-70
2021/08/30 06:44:47;;;;;;;3.10;2.80;;;16.30;99.90;;;;;;5092036;28;20214;-73
2021/08/30 06:47:14;;;;;;;3.83;2.78;;;16.30;99.90;;;;;;5091184;28;20632;-71
2021/08/30 06:49:41;;;;;;;5.20;2.78;;;16.30;99.90;;;;;;5092075;28;20205;-71
2021/08/30 06:52:08;;;;;;;2.90;2.53;;;16.30;99.90;;;;;;5067255;28;20253;-71
2021/08/30 06:54:37;;;;;;;6.38;3.50;;;16.30;99.90;;;;;;5074661;28;20206;-72
2021/08/30 06:57:04;;;;;;;10.30;3.65;;;16.40;99.90;;;;;;5081534;28;20205;-72
2021/08/30 06:59:31;;;;;;;13.15;3.88;;;16.40;99.90;;;;;;5088848;28;20205;-73
2021/08/30 07:01:58;;;;;;;8.45;2.70;;;16.50;99.90;;;;;;5086258;28;20236;-71
2021/08/30 07:04:25;;;;;;;4.07;2.72;;;16.70;99.90;;;;;;5072692;28;20206;-71
2021/08/30 07:06:52;;;;;;;6.47;3.00;;;16.70;99.90;;;;;;5075426;28;20256;-69
2021/08/30 07:09:19;;;;;;;4.22;3.22;;;16.90;99.90;;;;;;5080407;28;20202;-72
2021/08/30 07:11:48;;;;;;;3.38;3.08;;;17.10;99.90;;;;;;5090657;28;20206;-73
2021/08/30 07:14:15;;;;;;;3.92;3.58;;;17.10;99.90;;;;;;5091681;28;20209;-71
2021/08/30 07:16:42;;;;;;;5.55;2.90;;;17.10;99.90;;;;;;5087598;28;20205;-73
2021/08/30 07:19:09;;;;;;;3.38;2.85;;;17.30;99.90;;;;;;5066154;28;20231;-73
2021/08/30 07:21:36;;;;;;;3.75;2.67;;;17.30;99.90;;;;;;5091468;28;20282;-71
2021/08/30 07:24:03;;;;;;;4.90;2.80;;;17.40;99.90;;;;;;5091030;28;20206;-72
2021/08/30 07:26:30;;;;;;;4.72;3.38;;;17.50;99.90;;;;;;5091226;28;20201;-74
2021/08/30 07:28:59;;;;;;;5.18;2.97;;;17.60;99.90;;;;;;5079240;28;20255;-70
2021/08/30 07:31:26;;;;;;;4.07;3.15;;;17.80;99.90;;;;;;5091311;28;20213;-77
2021/08/30 07:33:53;;;;;;;4.22;3.60;;;17.90;99.90;;;;;;5090834;28;20636;-76
2021/08/30 07:36:21;;;;;;;3.63;2.75;;;17.90;99.90;;;;;;5091292;28;20299;-75
2021/08/30 07:38:48;;;;;;;3.72;2.92;;;18.00;99.90;;;;;;5091082;28;20300;-76
2021/08/30 07:41:15;;;;;;;2.95;2.67;;;18.20;99.90;;;;;;5090730;28;20646;-69
2021/08/30 07:43:42;;;;;;;3.47;3.15;;;18.30;99.90;;;;;;5091564;28;20213;-74
2021/08/30 07:46:11;;;;;;;2.78;2.58;;;18.40;99.90;;;;;;5090115;28;20197;-76
2021/08/30 07:48:38;;;;;;;3.83;2.83;;;18.40;99.90;;;;;;5090953;28;20305;-70
2021/08/30 07:51:05;;;;;;;3.08;2.80;;;18.50;99.90;;;;;;5090605;28;20298;-70
2021/08/30 07:53:32;;;;;;;2.45;2.25;;;18.40;99.90;;;;;;5076683;28;20206;-74
2021/08/30 07:55:59;;;;;;;6.22;3.05;;;18.50;99.90;;;;;;5075902;28;20318;-71
2021/08/30 07:58:26;;;;;;;4.22;2.58;;;18.80;99.90;;;;;;5067834;28;20663;-74
2021/08/30 08:00:53;;;;;;;3.17;2.83;;;19.00;99.90;;;;;;5080939;28;20696;-73
2021/08/30 08:03:21;;;;;;;4.07;2.88;;;19.00;99.90;;;;;;5084214;28;20677;-73
2021/08/30 08:05:48;;;;;;;2.38;2.17;;;19.00;99.90;;;;;;5090754;28;20205;-70
2021/08/30 08:08:15;;;;;;;5.63;2.60;;;19.10;99.90;;;;;;5090703;28;20201;-71
2021/08/30 08:10:43;;;;;;;2.65;2.45;;;19.20;99.90;;;;;;5090814;28;20742;-75
2021/08/30 08:13:10;;;;;;;3.00;2.70;;;19.30;99.90;;;;;;5068047;28;20218;-72
2021/08/30 08:15:38;;;;;;;2.45;2.20;;;19.30;99.90;;;;;;5069928;28;20259;-68
2021/08/30 08:18:05;;;;;;;4.55;3.38;;;19.40;99.90;;;;;;5063612;28;20257;-75
2021/08/30 08:20:34;;;;;;;4.35;2.95;;;19.40;99.90;;;;;;5066907;28;20231;-75
2021/08/30 08:23:02;;;;;;;3.90;2.67;;;19.50;99.90;;;;;;5057329;28;20214;-70
2021/08/30 08:25:30;;;;;;;5.38;3.33;;;19.60;99.90;;;;;;5076490;28;20210;-68
2021/08/30 08:28:00;;;;;;;6.35;2.92;;;19.70;99.90;;;;;;5091767;28;20255;-68
2021/08/30 08:30:28;;;;;;;3.03;2.72;;;19.80;99.90;;;;;;5082651;28;20215;-68
2021/08/30 08:32:55;;;;;;;2.88;2.67;;;19.90;99.90;;;;;;5066635;28;20202;-68
2021/08/30 08:35:22;;;;;;;3.03;2.80;;;20.00;99.90;;;;;;5063353;28;20565;-67
2021/08/30 08:37:50;;;;;;;4.45;2.78;;;20.10;99.90;;;;;;5068485;28;20218;-71
2021/08/30 08:40:17;;;;;;;2.80;2.60;;;20.40;99.90;;;;;;5073293;28;20210;-68
2021/08/30 08:42:45;;;;;;;6.07;2.80;;;20.50;99.90;;;;;;5086840;28;20255;-73
2021/08/30 08:45:14;;;;;;;2.28;2.08;;;20.90;99.90;;;;;;5085770;28;20669;-68
2021/08/30 08:47:42;;;;;;;3.50;2.72;;;20.90;99.90;;;;;;5070102;28;20627;-68
2021/08/30 08:50:12;;;;;;;2.72;2.53;;;20.80;99.90;;;;;;5075989;28;20206;-73
2021/08/30 08:52:42;;;;;;;4.00;2.47;;;20.90;99.90;;;;;;5078000;28;20210;-73
2021/08/30 08:55:12;;;;;;;3.58;2.80;;;21.50;99.90;;;;;;5067937;28;20293;-73
2021/08/30 08:57:39;;;;;;;4.05;2.65;;;21.60;99.90;;;;;;5071348;28;20206;-76
2021/08/30 09:00:10;;;;;;;2.85;2.65;;;21.50;99.90;;;;;;5067802;28;20206;-73
2021/08/30 09:02:37;;;;;;;4.95;2.90;;;21.60;99.90;;;;;;5076588;28;20225;-74
2021/08/30 09:05:07;;;;;;;3.67;2.20;;;21.70;99.90;;;;;;5065550;28;20627;-73
2021/08/30 09:07:37;;;;;;;2.70;2.50;;;21.80;99.90;;;;;;5074077;28;20198;-75
2021/08/30 09:10:08;;;;;;;3.15;2.33;;;22.20;99.90;;;;;;5074078;28;20199;-72
2021/08/30 09:12:36;;;;;;;2.72;2.33;;;22.80;99.90;;;;;;5065917;28;20226;-74
2021/08/30 09:15:12;;;;;;;3.65;2.60;;;24.10;99.90;;;;;;5088404;28;20202;-74
2021/08/30 09:17:47;;;;;;;2.85;2.30;;;25.40;99.90;;;;;;5066176;28;20221;-74
2021/08/30 09:20:15;;;;;;;2.78;2.40;;;25.30;99.90;;;;;;5086491;28;20242;-73
2021/08/30 09:22:42;;;;;;;3.13;2.35;;;23.80;99.90;;;;;;5082177;28;20239;-72
2021/08/30 09:25:11;;;;;;;4.63;2.75;;;24.10;99.90;;;;;;5067952;28;20219;-72
2021/08/30 09:27:41;;;;;;;3.03;2.72;;;25.80;99.90;;;;;;5080493;28;20270;-73
2021/08/30 09:30:13;;;;;;;2.90;2.47;;;26.20;99.90;;;;;;5068323;28;21013;-72
2021/08/30 09:32:41;;;;;;;3.00;2.45;;;26.70;99.90;;;;;;5069863;28;20209;-72
2021/08/30 09:35:09;;;;;;;2.67;2.25;;;29.60;99.90;;;;;;5087444;28;20568;-73
2021/08/30 09:37:40;;;;;;;3.08;2.67;;;30.80;99.90;;;;;;5084523;28;20622;-72
2021/08/30 09:40:09;;;;;;;2.30;2.15;;;30.80;99.90;;;;;;5086196;28;20738;-71
2021/08/30 09:42:36;;;;;;;2.58;2.00;;;31.70;99.90;;;;;;5083581;28;20221;-71
2021/08/30 09:45:14;;;;;;;2.42;2.20;;;30.10;99.90;;;;;;5085241;28;20217;-71
2021/08/30 09:47:52;;;;;;;2.63;1.80;;;30.20;99.90;;;;;;5083824;28;20217;-72
2021/08/30 09:50:19;;;;;;;2.33;2.13;;;32.10;99.90;;;;;;5083809;28;20205;-73
2021/08/30 09:52:46;;;;;;;2.35;2.17;;;32.90;99.90;;;;;;5083117;28;20209;-73
2021/08/30 09:55:13;;;;;;;2.50;2.30;;;34.30;99.90;;;;;;5083203;28;20614;-73
2021/08/30 09:57:48;;;;;;;2.63;1.92;;;35.00;99.90;;;;;;5080430;28;20263;-74
2021/08/30 10:00:18;;;;;;;3.00;2.33;;;34.10;99.90;;;;;;5082960;28;20283;-73
2021/08/30 10:02:48;;;;;;;2.78;2.38;;;32.40;99.90;;;;;;5079338;28;20306;-74
2021/08/30 10:05:16;;;;;;;2.38;2.15;;;31.20;99.90;;;;;;5081901;28;20756;-74
2021/08/30 10:07:45;;;;;;;2.97;2.67;;;32.90;99.90;;;;;;5077510;28;20583;-74
2021/08/30 10:10:13;;;;;;;3.15;2.40;;;31.60;99.90;;;;;;5075503;28;20201;-74
2021/08/30 10:12:40;;;;;;;2.17;2.08;;;32.50;99.90;;;;;;5077073;28;20210;-73
2021/08/30 10:15:09;;;;;;;4.32;2.83;;;34.50;99.90;;;;;;5080154;28;20205;-73
2021/08/30 10:17:43;;;;;;;4.38;2.20;;;34.00;98.90;;;;;;5055523;28;20206;-75
2021/08/30 10:20:16;;;;;;;2.33;2.13;;;33.50;99.90;;;;;;5085794;28;20217;-74
2021/08/30 10:22:43;;;;;;;2.70;2.50;;;33.50;99.20;;;;;;5091396;28;20309;-74
2021/08/30 10:25:16;;;;;;;2.22;2.13;;;33.70;99.80;;;;;;5090082;28;20581;-74
2021/08/30 10:27:55;;;;;;;3.92;2.80;;;33.30;99.20;;;;;;5067199;28;20215;-75
2021/08/30 10:30:23;;;;;;;2.67;2.47;;;35.60;98.90;;;;;;5088182;28;20311;-74
2021/08/30 10:32:56;;;;;;;2.40;1.63;;;33.50;98.90;;;;;;5089551;28;20213;-74
2021/08/30 10:35:25;;;;;;;2.78;2.25;;;28.70;99.90;;;;;;5086992;28;20209;-74
2021/08/30 10:37:56;;;;;;;1.85;1.75;;;26.80;99.90;;;;;;5077681;28;20240;-74
2021/08/30 10:40:25;;;;;;;2.40;2.20;;;25.60;99.90;;;;;;5086040;28;20263;-74
2021/08/30 10:43:00;;;;;;;2.22;1.98;;;24.90;99.90;;;;;;5086417;28;20225;-73
2021/08/30 10:45:36;;;;;;;2.30;1.85;;;24.50;99.90;;;;;;5085964;28;20707;-73
2021/08/30 10:48:07;;;;;;;3.13;2.15;;;24.40;99.90;;;;;;5077602;28;20250;-73
2021/08/30 10:50:43;;;;;;;2.60;2.38;;;24.60;99.90;;;;;;5083657;28;20723;-73
2021/08/30 10:53:15;;;;;;;2.05;1.90;;;25.00;99.90;;;;;;5067826;28;20531;-74
2021/08/30 10:55:44;;;;;;;2.20;2.00;;;24.90;99.90;;;;;;5082620;28;20286;-74
2021/08/30 10:58:16;;;;;;;4.85;2.30;;;25.20;99.90;;;;;;5085045;28;20209;-74
2021/08/30 11:00:44;;;;;;;2.42;2.03;;;25.30;99.90;;;;;;5081458;28;20206;-75
2021/08/30 11:03:14;;;;;;;2.78;2.53;;;25.50;99.90;;;;;;5082762;28;20229;-73
2021/08/30 11:05:44;;;;;;;2.75;1.80;;;25.40;99.90;;;;;;5080423;28;20203;-73
2021/08/30 11:08:11;;;;;;;3.47;3.17;;;25.30;99.90;;;;;;5081094;28;20284;-73
2021/08/30 11:10:38;;;;;;;2.40;2.20;;;25.20;99.90;;;;;;5076868;28;20303;-74
2021/08/30 11:13:05;;;;;;;3.60;2.10;;;25.30;99.90;;;;;;5078755;28;20210;-74
2021/08/30 11:15:34;;;;;;;2.10;1.95;;;25.00;99.90;;;;;;5082571;28;20206;-73
2021/08/30 11:18:03;;;;;;;3.20;2.45;;;25.10;99.90;;;;;;5091045;28;20217;-75
2021/08/30 11:20:33;;;;;;;2.97;2.13;;;25.00;99.90;;;;;;5089767;28;20671;-73
2021/08/30 11:23:00;;;;;;;2.10;2.00;;;25.20;99.90;;;;;;5089603;28;20230;-74
2021/08/30 11:25:36;;;;;;;3.08;2.88;;;25.20;99.90;;;;;;5087856;28;20210;-74
2021/08/30 11:28:15;;;;;;;3.90;2.60;;;25.20;99.90;;;;;;5088877;28;20582;-75
2021/08/30 11:30:42;;;;;;;4.25;2.35;;;25.20;99.90;;;;;;5086441;28;20206;-74
2021/08/30 11:33:09;;;;;;;4.63;1.88;;;25.10;99.90;;;;;;5088498;28;20220;-74
2021/08/30 11:35:37;;;;;;;2.58;2.38;;;25.40;99.90;;;;;;5084848;28;20202;-72
2021/08/30 11:38:11;;;;;;;2.65;2.10;;;25.60;99.90;;;;;;5087072;28;20621;-74
2021/08/30 11:40:39;;;;;;;2.42;2.22;;;25.90;99.90;;;;;;5082559;28;20251;-74
2021/08/30 11:43:13;;;;;;;2.63;2.42;;;26.00;99.90;;;;;;5085872;28;20709;-74
2021/08/30 11:45:40;;;;;;;2.10;1.90;;;25.80;99.90;;;;;;5080438;28;20288;-74
2021/08/30 11:48:13;;;;;;;2.00;1.73;;;25.40;99.90;;;;;;5076192;28;20210;-74
2021/08/30 11:50:41;;;;;;;2.65;2.08;;;25.40;99.90;;;;;;5069080;28;20256;-74
2021/08/30 11:53:12;;;;;;;1.92;1.77;;;25.70;99.90;;;;;;5077092;28;20309;-74
2021/08/30 11:55:39;;;;;;;8.65;5.30;;;25.60;99.90;;;;;;5060995;28;20209;-74
2021/08/30 11:58:07;;;;;;;3.42;2.78;;;25.90;99.90;;;;;;5066112;28;20201;-74
2021/08/30 12:00:34;;;;;;;2.80;2.05;;;26.10;99.90;;;;;;5063465;28;20257;-75
2021/08/30 12:03:12;;;;;;;2.92;2.72;;;26.20;99.90;;;;;;5064187;28;20725;-74
2021/08/30 12:05:44;;;;;;;6.45;3.30;;;25.10;99.90;;;;;;5065055;28;20209;-73
2021/08/30 12:08:11;;;;;;;2.45;2.25;;;24.90;99.90;;;;;;5079347;28;20201;-74
2021/08/30 12:10:38;;;;;;;2.20;2.00;;;25.00;99.90;;;;;;5070970;28;20263;-75
2021/08/30 12:16:01;;;;;;;3.60;2.42;;;26.10;99.90;;;;;;5013923;28;20215;-75
2021/08/30 12:18:28;;;;;;;6.18;5.47;;;26.20;99.90;;;;;;5059688;28;20210;-75
2021/08/30 12:20:59;;;;;;;1.90;1.75;;;26.10;99.90;;;;;;5062116;28;20279;-74
2021/08/30 12:23:27;;;;;;;3.03;1.98;;;25.90;99.90;;;;;;5062172;28;20250;-72
2021/08/30 12:25:55;;;;;;;4.00;2.25;;;26.00;99.90;;;;;;5065774;28;20201;-72
2021/08/30 12:28:22;;;;;;;2.97;1.95;;;26.20;99.90;;;;;;5068105;28;20213;-73
2021/08/30 12:30:51;;;;;;;1.40;1.30;;;26.10;99.90;;;;;;5082309;28;20212;-72
2021/08/30 12:33:20;;;;;;;1.92;1.83;;;26.30;99.90;;;;;;5078264;28;20201;-76
2021/08/30 12:35:49;;;;;;;3.53;1.60;;;26.20;99.90;;;;;;5081640;28;20214;-73
2021/08/30 12:38:20;;;;;;;2.13;1.63;;;26.50;99.90;;;;;;5078873;28;20247;-76
2021/08/30 12:40:48;;;;;;;3.72;1.48;;;26.40;99.90;;;;;;5080657;28;20629;-73
2021/08/30 12:43:16;;;;;;;2.20;1.95;;;26.10;99.90;;;;;;5063777;28;20238;-72
2021/08/30 12:45:43;;;;;;;2.08;1.65;;;25.90;99.90;;;;;;5063566;28;20673;-73
2021/08/30 12:48:10;;;;;;;2.50;1.90;;;26.00;99.90;;;;;;5068450;28;20628;-72
2021/08/30 12:50:39;;;;;;;2.28;2.08;;;26.20;99.90;;;;;;5069046;28;20210;-72
2021/08/30 12:53:07;;;;;;;2.28;2.17;;;26.00;99.90;;;;;;5069744;28;20592;-73
2021/08/30 12:55:36;;;;;;;2.40;2.10;;;26.10;99.90;;;;;;5062631;28;20202;-74
2021/08/30 12:58:04;;;;;;;2.00;1.90;;;26.20;99.90;;;;;;5068879;28;20670;-72
2021/08/30 13:00:31;;;;;;;1.38;1.27;;;26.40;99.90;;;;;;5075134;28;20206;-75